Time;durP1;ratioP1;P1;durP2;ratioP2;P2;SDS_P1;SDS_P2;PMS_P1;PMS_P2;Temp;Humidity;BMP_temperature;BMP_pressure;BME280_temperature;BME280_humidity;BME280_pressure;Samples;Min_cycle;Max_cycle;Signal;HPM_P1;HPM_P2
2022/01/05 00:00:54;;;;;;;9.45;5.65;;;;;;;4.67;100.00;97738.00;5034970;28;20033;-79
2022/01/05 00:03:19;;;;;;;8.10;5.55;;;;;;;4.66;100.00;97737.16;5035107;28;20476;-79
2022/01/05 00:05:45;;;;;;;7.28;5.15;;;;;;;4.62;100.00;97722.75;5035028;28;20040;-79
2022/01/05 00:08:12;;;;;;;7.65;4.93;;;;;;;4.60;100.00;97737.50;5035054;28;20451;-80
2022/01/05 00:10:38;;;;;;;7.18;4.93;;;;;;;4.50;100.00;97719.09;5017097;28;20079;-79
2022/01/05 00:13:03;;;;;;;8.70;4.53;;;;;;;4.64;100.00;97744.16;5035479;28;20041;-79
2022/01/05 00:15:28;;;;;;;6.05;4.38;;;;;;;4.48;100.00;97712.38;5035180;28;20041;-79
2022/01/05 00:17:54;;;;;;;8.20;4.40;;;;;;;4.67;100.00;97743.16;5016845;28;20568;-79
2022/01/05 00:20:19;;;;;;;6.97;5.38;;;;;;;4.62;100.00;97729.66;5017301;28;20026;-79
2022/01/05 00:22:45;;;;;;;8.30;4.90;;;;;;;4.75;100.00;97746.16;5016810;28;20513;-79
2022/01/05 00:25:10;;;;;;;8.82;4.65;;;;;;;4.83;100.00;97756.88;5034798;28;20177;-80
2022/01/05 00:27:36;;;;;;;5.88;4.45;;;;;;;4.87;100.00;97766.13;5034524;28;20061;-79
2022/01/05 00:30:01;;;;;;;7.05;4.72;;;;;;;4.79;100.00;97747.66;5034699;28;20057;-79
2022/01/05 00:32:27;;;;;;;7.40;5.55;;;;;;;4.96;100.00;97781.09;5034576;28;20033;-79
2022/01/05 00:34:52;;;;;;;6.50;4.72;;;;;;;5.04;100.00;97779.88;5016727;28;20029;-79
2022/01/05 00:37:18;;;;;;;7.25;4.25;;;;;;;4.90;100.00;97754.81;5017048;28;20029;-79
2022/01/05 00:39:44;;;;;;;7.20;4.85;;;;;;;5.00;100.00;97764.56;5034542;28;20416;-79
2022/01/05 00:42:09;;;;;;;7.15;5.05;;;;;;;5.07;100.00;97772.81;5034373;28;20088;-80
2022/01/05 00:44:35;;;;;;;9.75;6.70;;;;;;;5.11;100.00;97778.63;5034376;28;20439;-80
2022/01/05 00:47:00;;;;;;;7.15;5.75;;;;;;;5.13;100.00;97771.63;5031939;28;20072;-79
2022/01/05 00:49:26;;;;;;;9.52;5.22;;;;;;;5.06;100.00;97760.81;5033467;28;20101;-79
2022/01/05 00:51:51;;;;;;;6.63;5.38;;;;;;;5.05;100.00;97756.56;5033249;28;20130;-79
2022/01/05 00:54:17;;;;;;;6.85;4.95;;;;;;;5.21;100.00;97778.03;5033394;28;20034;-79
2022/01/05 00:56:42;;;;;;;7.93;5.22;;;;;;;5.21;100.00;97780.63;5034040;28;20045;-79
2022/01/05 00:59:07;;;;;;;7.80;5.55;;;;;;;5.22;100.00;97776.28;5034187;28;20358;-79
2022/01/05 01:01:33;;;;;;;7.40;5.18;;;;;;;5.21;100.00;97777.19;5033884;28;20029;-79
2022/01/05 01:03:59;;;;;;;8.10;5.40;;;;;;;5.23;100.00;97789.13;5034109;28;20026;-79
2022/01/05 01:06:24;;;;;;;9.23;5.85;;;;;;;5.15;100.00;97775.81;5016342;28;20043;-79
2022/01/05 01:08:50;;;;;;;10.13;6.30;;;;;;;5.25;100.00;97792.44;5016059;28;20385;-79
2022/01/05 01:11:15;;;;;;;8.43;5.60;;;;;;;5.17;100.00;97779.13;5016236;28;20033;-79
2022/01/05 01:13:43;;;;;;;7.32;5.32;;;;;;;5.28;100.00;97788.03;5033916;28;20163;-79
2022/01/05 01:16:08;;;;;;;7.28;5.13;;;;;;;5.30;100.00;97788.78;5033723;28;20065;-80
2022/01/05 01:18:35;;;;;;;8.60;5.35;;;;;;;5.23;100.00;97785.72;5015975;28;20121;-79
2022/01/05 01:21:01;;;;;;;5.63;4.43;;;;;;;5.26;100.00;97788.09;5033801;28;20137;-79
2022/01/05 01:23:27;;;;;;;7.93;5.28;;;;;;;5.25;100.00;97789.84;5016026;28;20452;-79
2022/01/05 01:25:53;;;;;;;8.52;5.65;;;;;;;5.23;100.00;97794.28;5015486;28;20069;-79
2022/01/05 01:28:19;;;;;;;7.20;5.55;;;;;;;5.24;100.00;97795.13;5033603;28;20048;-79
2022/01/05 01:30:44;;;;;;;9.63;6.15;;;;;;;5.19;100.00;97789.38;5033266;28;20481;-79
2022/01/05 01:33:10;;;;;;;8.10;5.55;;;;;;;5.25;100.00;97797.59;5033617;28;20030;-79
2022/01/05 01:35:35;;;;;;;7.07;4.70;;;;;;;5.18;100.00;97785.97;5015432;28;20033;-79
2022/01/05 01:38:01;;;;;;;6.50;4.75;;;;;;;5.29;100.00;97806.00;5033564;28;20362;-80
2022/01/05 01:40:27;;;;;;;5.47;4.35;;;;;;;5.21;100.00;97788.34;5015730;28;20036;-79
2022/01/05 01:42:53;;;;;;;5.72;4.22;;;;;;;5.30;100.00;97805.09;5015409;28;20040;-80
2022/01/05 01:45:18;;;;;;;5.47;4.15;;;;;;;5.32;100.00;97810.19;5033167;28;20034;-80
2022/01/05 01:47:45;;;;;;;6.40;4.43;;;;;;;5.22;100.00;97779.72;5033124;28;20037;-79
2022/01/05 01:50:11;;;;;;;6.07;4.05;;;;;;;5.35;100.00;97795.38;5015563;28;20036;-79
2022/01/05 01:52:36;;;;;;;7.47;4.22;;;;;;;5.36;100.00;97791.88;5033052;28;20038;-79
2022/01/05 01:55:03;;;;;;;6.15;4.57;;;;;;;5.33;100.00;97781.69;5033261;28;20088;-79
2022/01/05 01:57:33;;;;;;;9.68;6.13;;;;;;;5.37;100.00;97782.38;5014855;28;20033;-79
2022/01/05 02:00:00;;;;;;;10.43;6.80;;;;;;;5.35;100.00;97779.88;5015143;28;20026;-79
2022/01/05 02:02:25;;;;;;;10.23;6.82;;;;;;;5.41;100.00;97783.84;5033174;28;20056;-80
2022/01/05 02:04:50;;;;;;;10.65;6.97;;;;;;;5.42;100.00;97785.50;5015070;28;20439;-79
2022/01/05 02:07:16;;;;;;;9.43;7.32;;;;;;;5.33;100.00;97752.47;5015046;28;20121;-79
2022/01/05 02:09:42;;;;;;;9.85;7.65;;;;;;;5.46;100.00;97771.53;5032728;28;20059;-79
2022/01/05 02:12:08;;;;;;;11.93;8.10;;;;;;;5.38;100.00;97755.63;5015014;28;20033;-79
2022/01/05 02:14:34;;;;;;;12.77;8.57;;;;;;;5.36;100.00;97755.72;5014624;28;20042;-79
2022/01/05 02:17:03;;;;;;;10.10;7.45;;;;;;;5.36;100.00;97757.47;5032760;28;20032;-80
2022/01/05 02:19:29;;;;;;;11.90;9.20;;;;;;;5.46;100.00;97785.25;5032758;28;20036;-79
2022/01/05 02:21:54;;;;;;;12.68;8.77;;;;;;;5.36;100.00;97773.78;5014525;28;20535;-80
2022/01/05 02:24:20;;;;;;;9.63;6.38;;;;;;;5.36;100.00;97770.38;5032536;28;20025;-79
2022/01/05 02:26:45;;;;;;;11.85;7.57;;;;;;;5.38;100.00;97771.94;5009804;28;20038;-79
2022/01/05 02:29:10;;;;;;;13.90;8.50;;;;;;;5.48;100.00;97780.03;5010521;28;20576;-79
2022/01/05 02:31:36;;;;;;;14.10;9.65;;;;;;;5.37;100.00;97762.53;5010354;28;20042;-79
2022/01/05 02:34:01;;;;;;;17.35;11.15;;;;;;;5.54;100.00;97786.59;5010319;28;20114;-80
2022/01/05 02:36:28;;;;;;;16.52;9.70;;;;;;;5.56;100.00;97795.06;5010264;28;20053;-79
2022/01/05 02:38:53;;;;;;;11.77;7.70;;;;;;;5.42;100.00;97759.69;5010093;28;20107;-79
2022/01/05 02:41:19;;;;;;;11.38;7.45;;;;;;;5.56;100.00;97774.41;4993625;28;20481;-79
2022/01/05 02:43:45;;;;;;;8.48;6.18;;;;;;;5.56;100.00;97762.31;5009909;28;20037;-80
2022/01/05 02:46:17;;;;;;;8.13;6.40;;;;;;;5.58;100.00;97768.25;4993344;28;20044;-80
2022/01/05 02:48:45;;;;;;;12.40;6.75;;;;;;;5.55;100.00;97762.41;5009798;28;20084;-79
2022/01/05 02:51:11;;;;;;;10.45;7.05;;;;;;;5.55;100.00;97755.50;5009921;28;20102;-80
2022/01/05 02:53:37;;;;;;;9.60;6.90;;;;;;;5.61;100.00;97762.09;5009729;28;20038;-79
2022/01/05 02:56:03;;;;;;;9.80;6.65;;;;;;;5.62;100.00;97764.59;4993359;28;20033;-79
2022/01/05 02:58:29;;;;;;;7.45;5.78;;;;;;;5.48;100.00;97749.88;5010256;28;20044;-80
2022/01/05 03:00:55;;;;;;;7.78;6.22;;;;;;;5.50;100.00;97757.53;5032028;28;20025;-79
2022/01/05 03:03:21;;;;;;;7.90;6.10;;;;;;;5.52;100.00;97768.63;5032133;28;20025;-79
2022/01/05 03:05:46;;;;;;;8.48;6.18;;;;;;;5.61;100.00;97790.50;5031714;28;20044;-79
2022/01/05 03:08:11;;;;;;;10.10;6.78;;;;;;;5.62;100.00;97792.16;5014286;28;20120;-80
2022/01/05 03:10:37;;;;;;;9.90;6.90;;;;;;;5.62;100.00;97805.06;5030854;28;20026;-80
2022/01/05 03:13:02;;;;;;;9.65;7.05;;;;;;;5.46;100.00;97777.50;5032151;28;20026;-80
2022/01/05 03:15:28;;;;;;;8.35;6.65;;;;;;;5.56;100.00;97789.91;5031803;28;20026;-80
2022/01/05 03:17:54;;;;;;;8.40;6.25;;;;;;;5.65;100.00;97794.56;5013971;28;20128;-79
2022/01/05 03:20:20;;;;;;;10.43;6.90;;;;;;;5.48;100.00;97754.22;5031816;28;20083;-79
2022/01/05 03:22:46;;;;;;;9.82;7.25;;;;;;;5.66;100.00;97785.91;5031509;28;20099;-79
2022/01/05 03:25:16;;;;;;;8.45;6.85;;;;;;;5.63;100.00;97786.06;5013730;28;20017;-79
2022/01/05 03:27:46;;;;;;;9.38;6.00;;;;;;;5.63;100.00;97797.22;5031463;28;20592;-79
2022/01/05 03:30:13;;;;;;;6.73;6.03;;;;;;;5.56;100.00;97787.31;5031862;28;20086;-79
2022/01/05 03:32:55;;;;;;;9.20;6.05;;;;;;;5.61;100.00;97786.16;5013806;28;20267;-79
2022/01/05 03:35:21;;;;;;;9.05;5.97;;;;;;;5.64;100.00;97785.13;5031712;28;20072;-79
2022/01/05 03:37:46;;;;;;;8.93;6.20;;;;;;;5.63;100.00;97781.72;5031278;28;20440;-79
2022/01/05 03:40:12;;;;;;;9.13;5.85;;;;;;;5.56;100.00;97769.25;5031764;28;20543;-79
2022/01/05 03:42:37;;;;;;;8.98;6.25;;;;;;;5.61;100.00;97791.34;5031304;28;20053;-80
2022/01/05 03:45:03;;;;;;;7.88;6.28;;;;;;;5.64;100.00;97801.47;5031652;28;20034;-79
2022/01/05 03:47:28;;;;;;;8.77;6.25;;;;;;;5.54;100.00;97784.84;5031641;28;20029;-79
2022/01/05 03:49:54;;;;;;;8.50;6.28;;;;;;;5.65;100.00;97792.81;5031348;28;20033;-79
2022/01/05 03:52:19;;;;;;;8.70;6.40;;;;;;;5.61;100.00;97782.75;5031665;28;20022;-79
2022/01/05 03:54:45;;;;;;;8.52;6.38;;;;;;;5.59;100.00;97772.50;5013780;28;20030;-79
2022/01/05 03:57:10;;;;;;;9.68;6.95;;;;;;;5.65;100.00;97763.59;5031605;28;20078;-79
2022/01/05 03:59:36;;;;;;;9.23;6.68;;;;;;;5.64;100.00;97767.88;5031488;28;20041;-79
2022/01/05 04:02:01;;;;;;;9.68;6.50;;;;;;;5.51;100.00;97749.69;5031464;28;20017;-79
2022/01/05 04:04:27;;;;;;;8.25;6.75;;;;;;;5.63;100.00;97766.22;5031331;28;20040;-79
2022/01/05 04:06:52;;;;;;;7.30;6.22;;;;;;;5.63;100.00;97771.41;5013168;28;20022;-79
2022/01/05 04:09:17;;;;;;;7.85;6.22;;;;;;;5.60;100.00;97758.66;5031584;28;20144;-79
2022/01/05 04:11:43;;;;;;;10.13;7.30;;;;;;;5.60;100.00;97765.56;5013510;28;20031;-79
2022/01/05 04:14:08;;;;;;;10.75;7.45;;;;;;;5.59;100.00;97758.75;5013472;28;20120;-79
2022/01/05 04:16:33;;;;;;;12.93;8.95;;;;;;;5.65;100.00;97766.16;5031272;28;20083;-79
2022/01/05 04:18:59;;;;;;;18.52;12.20;;;;;;;5.62;100.00;97764.59;5031313;28;20037;-79
2022/01/05 04:21:24;;;;;;;20.65;13.35;;;;;;;5.65;100.00;97768.75;5032765;28;20037;-79
2022/01/05 04:23:50;;;;;;;18.38;11.57;;;;;;;5.69;100.00;97763.31;5034800;28;20096;-80
2022/01/05 04:26:15;;;;;;;22.48;12.43;;;;;;;5.57;100.00;97737.38;5016974;28;20030;-80
2022/01/05 04:28:40;;;;;;;13.40;9.02;;;;;;;5.69;100.00;97759.91;5034928;28;20037;-79
2022/01/05 04:31:06;;;;;;;15.93;8.77;;;;;;;5.69;100.00;97772.81;5034774;28;20108;-79
2022/01/05 04:33:32;;;;;;;12.20;8.90;;;;;;;5.61;100.00;97756.94;5016911;28;20429;-80
2022/01/05 04:35:57;;;;;;;17.35;10.40;;;;;;;5.59;100.00;97756.16;5016569;28;20545;-80
2022/01/05 04:38:22;;;;;;;13.32;9.15;;;;;;;5.65;100.00;97767.00;5017053;28;20022;-80
2022/01/05 04:40:48;;;;;;;10.30;8.20;;;;;;;5.65;100.00;97768.75;5016674;28;20026;-79
2022/01/05 04:43:13;;;;;;;10.50;6.80;;;;;;;5.68;100.00;97761.63;5034643;28;20096;-79
2022/01/05 04:45:39;;;;;;;9.60;6.57;;;;;;;5.69;100.00;97759.91;5015734;28;20030;-79
2022/01/05 04:48:04;;;;;;;9.63;6.97;;;;;;;5.64;100.00;97765.31;5033451;28;20053;-80
2022/01/05 04:50:30;;;;;;;11.68;7.70;;;;;;;5.60;100.00;97760.41;5015627;28;20037;-79
2022/01/05 04:52:55;;;;;;;38.72;24.20;;;;;;;5.63;100.00;97773.97;5015303;28;20025;-79
2022/01/05 04:55:20;;;;;;;32.42;21.88;;;;;;;5.60;100.00;97779.31;5034090;28;20100;-80
2022/01/05 04:57:46;;;;;;;19.65;13.20;;;;;;;5.59;100.00;97772.50;5032363;28;20037;-79
2022/01/05 05:00:12;;;;;;;13.40;9.07;;;;;;;5.54;100.00;97760.75;5034159;28;20117;-79
2022/01/05 05:02:37;;;;;;;9.85;6.93;;;;;;;5.59;100.00;97769.91;5016142;28;20030;-79
2022/01/05 05:05:03;;;;;;;7.72;6.50;;;;;;;5.56;100.00;97769.25;5034042;28;20408;-79
2022/01/05 05:07:28;;;;;;;9.77;6.75;;;;;;;5.59;100.00;97767.31;5015982;28;20029;-79
2022/01/05 05:09:53;;;;;;;7.57;6.78;;;;;;;5.58;100.00;97763.09;5016152;28;20484;-79
2022/01/05 05:12:19;;;;;;;8.82;6.32;;;;;;;5.67;100.00;97774.66;5016274;28;20025;-80
2022/01/05 05:14:44;;;;;;;11.13;6.75;;;;;;;5.54;100.00;97735.78;5033676;28;20032;-79
2022/01/05 05:17:10;;;;;;;7.07;6.22;;;;;;;5.64;100.00;97752.41;5015937;28;20473;-79
2022/01/05 05:19:35;;;;;;;6.93;5.95;;;;;;;5.65;100.00;97761.84;5015787;28;20030;-79
2022/01/05 05:22:01;;;;;;;10.77;6.97;;;;;;;5.59;100.00;97748.41;5015695;28;20367;-79
2022/01/05 05:24:26;;;;;;;9.10;6.38;;;;;;;5.63;100.00;97752.50;5033687;28;20037;-79
2022/01/05 05:26:51;;;;;;;8.68;6.80;;;;;;;5.48;100.00;97721.47;5015629;28;20028;-79
2022/01/05 05:29:17;;;;;;;10.93;6.25;;;;;;;5.63;100.00;97755.91;5016016;28;20041;-79
2022/01/05 05:31:42;;;;;;;8.73;6.68;;;;;;;5.68;100.00;97769.38;5010733;28;20505;-78
2022/01/05 05:34:08;;;;;;;11.05;7.57;;;;;;;5.57;100.00;97747.69;4994274;28;20121;-79
2022/01/05 05:36:33;;;;;;;7.90;6.38;;;;;;;5.64;100.00;97772.22;5011321;28;20503;-79
2022/01/05 05:38:58;;;;;;;8.80;6.38;;;;;;;5.61;100.00;97765.50;5011541;28;20101;-79
2022/01/05 05:41:24;;;;;;;8.98;6.22;;;;;;;5.62;100.00;97754.25;5011240;28;20129;-79
2022/01/05 05:43:49;;;;;;;8.15;6.40;;;;;;;5.51;100.00;97738.53;5011131;28;20037;-78
2022/01/05 05:46:16;;;;;;;9.48;6.13;;;;;;;5.63;100.00;97749.91;5011367;28;20183;-79
2022/01/05 05:48:42;;;;;;;10.55;6.97;;;;;;;5.43;100.00;97713.13;5011214;28;20042;-79
2022/01/05 05:51:07;;;;;;;9.20;6.78;;;;;;;5.54;100.00;97735.78;5011052;28;20153;-78
2022/01/05 05:53:33;;;;;;;8.63;7.63;;;;;;;5.59;100.00;97740.66;5011070;28;20030;-80
2022/01/05 05:55:58;;;;;;;9.82;7.03;;;;;;;5.60;100.00;97732.00;5011099;28;20113;-79
2022/01/05 05:58:23;;;;;;;9.40;7.15;;;;;;;5.59;100.00;97735.50;5010986;28;20142;-79
2022/01/05 06:00:49;;;;;;;10.00;7.28;;;;;;;5.57;100.00;97742.53;5010664;28;20469;-79
2022/01/05 06:03:15;;;;;;;9.07;7.57;;;;;;;5.44;100.00;97719.97;5026830;28;20037;-79
2022/01/05 06:05:40;;;;;;;11.52;7.57;;;;;;;5.54;100.00;97745.28;5014783;28;20025;-79
2022/01/05 06:08:06;;;;;;;10.68;8.45;;;;;;;5.41;100.00;97730.47;5032788;28;20037;-79
2022/01/05 06:10:31;;;;;;;9.23;7.30;;;;;;;5.42;100.00;97733.88;5032929;28;20532;-79
2022/01/05 06:12:57;;;;;;;10.35;7.85;;;;;;;5.54;100.00;97758.19;5014978;28;20488;-79
2022/01/05 06:15:22;;;;;;;10.23;8.25;;;;;;;5.39;100.00;97736.63;5015109;28;20029;-79
2022/01/05 06:17:47;;;;;;;10.45;8.48;;;;;;;5.53;100.00;97756.53;5014860;28;20056;-79
2022/01/05 06:20:13;;;;;;;11.85;9.27;;;;;;;5.45;100.00;97756.94;5032475;28;20461;-78
2022/01/05 06:22:40;;;;;;;13.40;10.60;;;;;;;5.46;100.00;97761.19;5014572;28;20049;-79
2022/01/05 06:25:08;;;;;;;14.35;10.63;;;;;;;5.46;100.00;97766.34;5032425;28;20030;-79
2022/01/05 06:27:33;;;;;;;13.07;10.50;;;;;;;5.51;100.00;97777.25;5032306;28;20113;-79
2022/01/05 06:30:04;;;;;;;14.30;11.10;;;;;;;5.44;100.00;97766.44;5014719;28;20452;-79
2022/01/05 06:32:29;;;;;;;13.98;11.13;;;;;;;5.44;100.00;97773.38;5032513;28;20507;-79
2022/01/05 06:34:54;;;;;;;13.45;10.35;;;;;;;5.44;100.00;97778.53;5032134;28;20045;-79
2022/01/05 06:37:20;;;;;;;13.68;10.35;;;;;;;5.43;100.00;97774.25;5014842;28;20120;-80
2022/01/05 06:39:45;;;;;;;13.45;10.07;;;;;;;5.40;100.00;97775.28;5032317;28;20029;-80
2022/01/05 06:42:11;;;;;;;14.88;10.68;;;;;;;5.31;100.00;97765.47;5032361;28;20384;-80
2022/01/05 06:44:36;;;;;;;14.05;10.90;;;;;;;5.41;100.00;97773.53;5014414;28;20029;-80
2022/01/05 06:47:02;;;;;;;10.80;9.70;;;;;;;5.37;100.00;97772.88;5014443;28;20457;-80
2022/01/05 06:49:27;;;;;;;13.90;9.52;;;;;;;5.38;100.00;97778.84;5032110;28;20053;-80
2022/01/05 06:51:52;;;;;;;22.70;15.82;;;;;;;5.42;100.00;97781.19;5014252;28;20070;-80
2022/01/05 06:54:18;;;;;;;28.33;20.08;;;;;;;5.45;100.00;97780.19;5032225;28;20087;-80
2022/01/05 06:56:44;;;;;;;28.00;21.77;;;;;;;5.42;100.00;97776.03;5014123;28;20037;-80
2022/01/05 06:59:10;;;;;;;21.05;16.05;;;;;;;5.41;100.00;97774.34;5032140;28;20049;-80
2022/01/05 07:01:35;;;;;;;22.10;15.32;;;;;;;5.40;100.00;97764.13;5032023;28;20030;-76
2022/01/05 07:04:02;;;;;;;25.33;16.77;;;;;;;5.34;100.00;97757.53;5031799;28;20529;-76
2022/01/05 07:06:27;;;;;;;23.48;16.83;;;;;;;5.37;100.00;97761.72;5032003;28;20125;-76
2022/01/05 07:08:54;;;;;;;18.02;14.35;;;;;;;5.42;100.00;97767.44;5031761;28;20120;-76
2022/01/05 07:11:19;;;;;;;17.00;13.25;;;;;;;5.33;100.00;97755.88;5031883;28;20036;-76
2022/01/05 07:13:45;;;;;;;15.98;11.70;;;;;;;5.38;100.00;97761.63;5031977;28;20029;-80
2022/01/05 07:16:10;;;;;;;12.85;10.55;;;;;;;5.43;100.00;97766.53;5031784;28;20401;-80
2022/01/05 07:18:35;;;;;;;13.52;11.25;;;;;;;5.44;100.00;97766.44;5013638;28;20034;-80
2022/01/05 07:21:01;;;;;;;13.23;11.30;;;;;;;5.44;100.00;97765.63;5031553;28;20079;-81
2022/01/05 07:23:26;;;;;;;14.48;12.10;;;;;;;5.33;100.00;97761.03;5014304;28;20462;-81
2022/01/05 07:25:51;;;;;;;13.20;11.07;;;;;;;5.40;100.00;97758.97;5013622;28;20552;-81
2022/01/05 07:28:17;;;;;;;13.40;12.05;;;;;;;5.42;100.00;97762.28;5014013;28;20033;-81
2022/01/05 07:30:42;;;;;;;13.68;10.52;;;;;;;5.34;100.00;97743.81;5013716;28;20032;-81
2022/01/05 07:33:07;;;;;;;14.27;10.43;;;;;;;5.32;100.00;97738.75;5031658;28;20108;-80
2022/01/05 07:35:33;;;;;;;13.10;11.30;;;;;;;5.47;100.00;97762.84;5031531;28;20017;-81
2022/01/05 07:37:59;;;;;;;11.82;10.63;;;;;;;5.37;100.00;97749.63;5031814;28;20497;-81
2022/01/05 07:40:24;;;;;;;18.05;13.50;;;;;;;5.45;100.00;97760.38;5013984;28;20056;-81
2022/01/05 07:42:50;;;;;;;13.27;11.65;;;;;;;5.43;100.00;97761.34;5031413;28;20036;-81
2022/01/05 07:45:15;;;;;;;13.40;11.20;;;;;;;5.49;100.00;97769.59;5031531;28;20181;-81
2022/01/05 07:47:41;;;;;;;11.82;9.88;;;;;;;5.51;100.00;97772.91;5030954;28;20531;-81
2022/01/05 07:50:14;;;;;;;11.50;9.77;;;;;;;5.44;100.00;97750.13;5031503;28;20095;-81
2022/01/05 07:52:41;;;;;;;11.65;9.95;;;;;;;5.52;100.00;97763.44;5013652;28;20026;-81
2022/01/05 07:55:07;;;;;;;15.13;11.02;;;;;;;5.48;100.00;97767.13;5013885;28;20025;-81
2022/01/05 07:57:34;;;;;;;12.27;10.68;;;;;;;5.51;100.00;97772.09;5035211;28;20033;-81
2022/01/05 07:59:59;;;;;;;14.73;10.07;;;;;;;5.34;100.00;97742.06;5017485;28;20068;-81
2022/01/05 08:02:24;;;;;;;13.15;10.75;;;;;;;5.49;100.00;97774.78;5017517;28;20053;-81
2022/01/05 08:04:50;;;;;;;13.07;10.95;;;;;;;5.45;100.00;97768.09;5034962;28;20083;-81
2022/01/05 08:07:15;;;;;;;16.88;12.10;;;;;;;5.51;100.00;97783.25;5035201;28;20052;-81
2022/01/05 08:09:42;;;;;;;17.48;12.85;;;;;;;5.50;100.00;97791.09;5017302;28;20025;-81
2022/01/05 08:12:08;;;;;;;18.67;12.20;;;;;;;5.26;100.00;97744.22;5035113;28;20030;-81
2022/01/05 08:14:33;;;;;;;24.77;15.73;;;;;;;5.50;100.00;97781.59;5016963;28;20456;-80
2022/01/05 08:16:59;;;;;;;15.52;12.07;;;;;;;5.52;100.00;97778.94;5034865;28;20068;-81
2022/01/05 08:19:24;;;;;;;14.55;11.18;;;;;;;5.39;100.00;97750.38;5017458;28;20094;-81
2022/01/05 08:21:50;;;;;;;15.43;10.85;;;;;;;5.54;100.00;97773.69;5034656;28;20069;-81
2022/01/05 08:24:15;;;;;;;13.02;10.45;;;;;;;5.50;100.00;97763.50;5016970;28;20033;-81
2022/01/05 08:26:40;;;;;;;12.48;10.23;;;;;;;5.54;100.00;97786.59;5016749;28;20061;-81
2022/01/05 08:29:06;;;;;;;13.63;9.93;;;;;;;5.54;100.00;97782.25;5034773;28;20037;-81
2022/01/05 08:31:31;;;;;;;12.20;9.60;;;;;;;5.41;100.00;97764.03;5034994;28;20080;-80
2022/01/05 08:33:59;;;;;;;11.30;10.15;;;;;;;5.53;100.00;97777.19;5034458;28;20036;-80
2022/01/05 08:36:25;;;;;;;12.57;10.00;;;;;;;5.57;100.00;97770.94;5034758;28;20030;-81
2022/01/05 08:38:50;;;;;;;14.27;9.70;;;;;;;5.58;100.00;97775.16;5034607;28;20454;-80
2022/01/05 08:41:16;;;;;;;13.27;9.38;;;;;;;5.60;100.00;97787.06;5034586;28;20029;-80
2022/01/05 08:43:41;;;;;;;14.18;10.15;;;;;;;5.59;100.00;97792.31;5034374;28;20040;-80
2022/01/05 08:46:07;;;;;;;12.07;8.93;;;;;;;5.64;100.00;97791.13;5034560;28;20037;-80
2022/01/05 08:48:33;;;;;;;10.98;9.20;;;;;;;5.54;100.00;97763.34;5034648;28;20032;-80
2022/01/05 08:50:59;;;;;;;11.15;9.27;;;;;;;5.63;100.00;97783.47;5016734;28;20033;-80
2022/01/05 08:53:24;;;;;;;12.50;9.95;;;;;;;5.59;100.00;97774.25;5016589;28;20021;-80
2022/01/05 08:55:50;;;;;;;13.85;8.57;;;;;;;5.59;100.00;97776.81;5033854;28;20374;-80
2022/01/05 08:58:18;;;;;;;10.25;8.40;;;;;;;5.64;100.00;97790.31;5016316;28;20417;-80
2022/01/05 09:00:44;;;;;;;11.50;8.70;;;;;;;5.51;100.00;97772.91;5015897;28;20025;-80
2022/01/05 09:03:13;;;;;;;9.65;8.55;;;;;;;5.60;100.00;97781.91;5016546;28;20036;-81
2022/01/05 09:05:39;;;;;;;10.52;8.25;;;;;;;5.69;100.00;97801.22;5033880;28;20031;-80
2022/01/05 09:08:05;;;;;;;10.57;8.93;;;;;;;5.67;100.00;97793.56;5032806;28;20461;-80
2022/01/05 09:10:30;;;;;;;9.93;8.18;;;;;;;5.59;100.00;97782.81;5034173;28;20030;-80
2022/01/05 09:12:56;;;;;;;10.48;8.32;;;;;;;5.60;100.00;97783.66;5015951;28;20123;-80
2022/01/05 09:15:22;;;;;;;14.90;10.35;;;;;;;5.70;100.00;97803.72;5033654;28;20068;-80
2022/01/05 09:17:47;;;;;;;16.80;10.60;;;;;;;5.71;100.00;97801.97;5015953;28;20053;-80
2022/01/05 09:20:13;;;;;;;13.07;10.02;;;;;;;5.72;100.00;97807.03;5033978;28;20103;-80
2022/01/05 09:22:38;;;;;;;13.02;8.88;;;;;;;5.69;100.00;97801.22;5015769;28;20053;-81
2022/01/05 09:25:09;;;;;;;19.30;10.57;;;;;;;5.63;100.00;97783.47;5016147;28;20029;-80
2022/01/05 09:27:36;;;;;;;21.48;12.30;;;;;;;5.63;100.00;97791.22;5015655;28;20041;-80
2022/01/05 09:30:03;;;;;;;26.95;14.50;;;;;;;5.60;100.00;97787.06;5033600;28;20393;-81
2022/01/05 09:32:29;;;;;;;34.58;16.67;;;;;;;5.71;100.00;97799.38;5015883;28;20044;-81
2022/01/05 09:34:54;;;;;;;27.20;15.68;;;;;;;5.70;100.00;97805.47;5015750;28;20026;-80
2022/01/05 09:42:41;;;;;;;18.33;11.70;;;;;;;5.75;100.00;97811.22;4952714;29;20039;-81
2022/01/05 09:45:15;;;;;;;27.65;14.40;;;;;;;5.80;100.00;97813.53;4952858;29;20037;-80
2022/01/05 09:47:59;;;;;;;27.15;17.27;;;;;;;5.80;100.00;97818.69;4952524;29;20554;-80
2022/01/05 09:50:26;;;;;;;25.13;16.40;;;;;;;5.78;100.00;97812.78;4952883;29;20043;-81
2022/01/05 09:52:52;;;;;;;15.98;11.93;;;;;;;5.67;100.00;97810.81;4952460;29;20040;-80
2022/01/05 09:55:17;;;;;;;17.13;10.73;;;;;;;5.60;100.00;97802.56;4952795;29;20042;-81
2022/01/05 09:57:44;;;;;;;14.50;9.85;;;;;;;5.76;100.00;97843.88;4952503;29;20035;-81
2022/01/05 10:00:15;;;;;;;11.52;7.82;;;;;;;5.69;100.00;97852.91;4952576;29;20114;-81
2022/01/05 10:02:42;;;;;;;6.72;5.45;;;;;;;5.61;100.00;97850.72;4952383;29;20043;-80
2022/01/05 10:05:13;;;;;;;5.05;4.15;;;;;;;5.35;100.00;97826.34;4952484;29;20066;-82
2022/01/05 10:07:43;;;;;;;7.00;4.88;;;;;;;5.43;100.00;97868.03;4952067;29;20035;-80
2022/01/05 10:10:09;;;;;;;7.78;4.93;;;;;;;5.36;100.00;97876.22;4952260;29;20593;-80
2022/01/05 10:12:35;;;;;;;11.70;8.55;;;;;;;5.18;100.00;97875.44;4954476;28;20062;-80
2022/01/05 10:15:01;;;;;;;8.32;6.43;;;;;;;5.12;100.00;97889.50;4967752;28;20425;-80
2022/01/05 10:17:32;;;;;;;10.27;6.18;;;;;;;5.02;100.00;97893.50;4935023;29;20035;-80
2022/01/05 10:19:59;;;;;;;8.50;5.00;;;;;;;5.05;100.00;97916.53;4997223;28;20025;-80
2022/01/05 10:22:45;;;;;;;6.03;3.88;;;;;;;4.95;100.00;97929.09;5051551;28;20077;-80
2022/01/05 10:25:17;;;;;;;6.30;3.03;;;;;;;4.83;100.00;97923.72;5015971;28;20048;-80
2022/01/05 10:27:45;;;;;;;;;;;;;;;4.79;100.00;97928.19;5033478;28;20040;-80
2022/01/05 10:30:14;;;;;;;7.15;4.45;;;;;;;4.56;100.00;97911.31;5014608;28;20435;-80
2022/01/05 10:32:45;;;;;;;6.28;4.68;;;;;;;4.60;100.00;97937.78;5031343;28;20025;-77
2022/01/05 10:35:14;;;;;;;6.65;4.00;;;;;;;4.47;100.00;97925.50;5030316;28;20029;-79
2022/01/05 10:37:43;;;;;;;6.75;6.05;;;;;;;4.44;100.00;97922.22;5031288;28;20056;-77
2022/01/05 10:40:20;;;;;;;4.55;3.40;;;;;;;4.38;100.00;97940.56;5031307;28;20025;-78
2022/01/05 10:42:48;;;;;;;4.85;3.45;;;;;;;4.34;100.00;97957.94;4989146;28;20089;-78
2022/01/05 10:45:18;;;;;;;6.50;4.53;;;;;;;4.21;100.00;97956.84;4992612;28;20047;-78
2022/01/05 10:48:05;;;;;;;7.53;3.07;;;;;;;4.23;100.00;97960.19;5009717;28;20367;-78
2022/01/05 10:50:31;;;;;;;8.20;4.38;;;;;;;4.11;100.00;97938.41;5010133;28;20150;-78
2022/01/05 10:52:57;;;;;;;8.00;4.45;;;;;;;4.04;100.00;97913.84;5009728;28;20490;-78
2022/01/05 10:55:24;;;;;;;6.68;4.05;;;;;;;4.07;100.00;97926.59;5009837;28;20254;-79
2022/01/05 10:58:00;;;;;;;8.88;5.25;;;;;;;3.95;100.00;97911.72;4993055;28;20053;-78
2022/01/05 11:00:35;;;;;;;6.95;3.03;;;;;;;4.08;100.00;97940.28;4988381;28;20169;-78
2022/01/05 11:03:02;;;;;;;8.10;4.05;;;;;;;4.05;100.00;97941.28;4973974;28;20042;-80
2022/01/05 11:05:27;;;;;;;9.95;4.85;;;;;;;4.13;100.00;97956.38;4990187;28;20080;-79
2022/01/05 11:08:07;;;;;;;8.55;4.32;;;;;;;4.18;100.00;97970.72;4973589;28;20471;-79
2022/01/05 11:10:33;;;;;;;9.35;4.68;;;;;;;4.16;100.00;97956.22;4973966;28;20031;-80
2022/01/05 11:12:58;;;;;;;10.10;3.60;;;;;;;4.17;100.00;97948.44;4980827;28;20041;-81
2022/01/05 11:15:34;;;;;;;6.50;3.63;;;;;;;4.19;100.00;97958.66;5014265;28;20068;-76
2022/01/05 11:18:09;;;;;;;9.30;3.75;;;;;;;4.03;100.00;97950.00;5031797;28;20036;-76
2022/01/05 11:20:42;;;;;;;6.47;3.45;;;;;;;4.10;100.00;97964.25;5043859;28;20029;-77
2022/01/05 11:23:07;;;;;;;8.27;4.50;;;;;;;4.11;100.00;97977.06;5051520;28;20504;-76
2022/01/05 11:25:36;;;;;;;8.77;4.28;;;;;;;4.05;100.00;97963.66;5037607;28;20100;-76
2022/01/05 11:28:02;;;;;;;8.55;4.47;;;;;;;4.16;100.00;97985.41;5031572;28;20037;-76